Time;durP1;ratioP1;P1;durP2;ratioP2;P2;SDS_P1;SDS_P2;PMS_P1;PMS_P2;Temp;Humidity;BMP_temperature;BMP_pressure;BME280_temperature;BME280_humidity;BME280_pressure;Samples;Min_cycle;Max_cycle;Signal;HPM_P1;HPM_P2
2023/12/29 00:01:54;;;;;;;7.28;1.88;;;9.00;99.90;;;;;;4920094;28;20034;-87
2023/12/29 00:04:20;;;;;;;5.97;1.73;;;9.00;99.90;;;;;;4942398;28;22212;-86
2023/12/29 00:06:45;;;;;;;5.18;1.80;;;9.00;99.90;;;;;;4955471;28;20050;-85
2023/12/29 00:09:12;;;;;;;7.22;1.88;;;8.90;99.90;;;;;;4927450;28;20096;-86
2023/12/29 00:11:38;;;;;;;4.80;1.40;;;8.90;99.90;;;;;;4909029;28;20112;-83
2023/12/29 00:14:04;;;;;;;4.82;1.67;;;8.80;99.90;;;;;;4942598;28;20172;-85
2023/12/29 00:16:29;;;;;;;6.15;1.27;;;8.80;99.90;;;;;;4956553;28;20033;-86
2023/12/29 00:18:58;;;;;;;7.05;1.90;;;8.70;99.90;;;;;;4948841;28;20045;-86
2023/12/29 00:21:24;;;;;;;5.35;1.90;;;8.70;99.90;;;;;;4951321;28;20034;-85
2023/12/29 00:23:49;;;;;;;7.38;1.83;;;8.60;99.90;;;;;;4972607;28;20072;-87
2023/12/29 00:26:18;;;;;;;4.85;1.42;;;8.60;99.90;;;;;;4944782;28;20048;-85
2023/12/29 00:28:56;;;;;;;3.58;1.38;;;8.60;99.90;;;;;;4955353;28;20053;-86
2023/12/29 00:31:22;;;;;;;5.85;2.08;;;8.60;99.90;;;;;;4961161;28;20807;-85
2023/12/29 00:33:47;;;;;;;6.25;2.20;;;8.50;99.90;;;;;;4977327;28;20112;-86
2023/12/29 00:36:28;;;;;;;10.20;2.05;;;8.50;99.90;;;;;;4965640;28;20030;-86
2023/12/29 00:38:54;;;;;;;8.15;1.60;;;8.50;99.90;;;;;;4935526;28;20557;-86
2023/12/29 00:41:19;;;;;;;7.78;1.98;;;8.50;99.90;;;;;;4946160;28;20038;-86
2023/12/29 00:43:45;;;;;;;6.95;2.10;;;8.40;99.90;;;;;;4958190;28;20034;-85
2023/12/29 00:46:14;;;;;;;7.30;2.20;;;8.40;99.90;;;;;;4964874;28;20037;-86
2023/12/29 00:48:40;;;;;;;12.32;2.67;;;8.40;99.90;;;;;;4940264;28;20034;-85
2023/12/29 00:51:06;;;;;;;8.07;2.15;;;8.40;99.90;;;;;;4971853;28;20482;-84
2023/12/29 00:53:32;;;;;;;4.65;2.17;;;8.40;99.90;;;;;;4947094;28;20034;-86
2023/12/29 00:55:58;;;;;;;3.08;1.98;;;8.40;99.90;;;;;;4945806;28;20033;-85
2023/12/29 00:58:23;;;;;;;7.28;2.08;;;8.40;99.90;;;;;;4973966;28;20037;-84
2023/12/29 01:00:49;;;;;;;7.90;2.53;;;8.40;99.90;;;;;;4976872;28;20057;-86
2023/12/29 01:03:24;;;;;;;3.97;1.80;;;8.40;99.90;;;;;;4984300;28;20052;-84
2023/12/29 01:05:49;;;;;;;6.63;1.85;;;8.40;99.90;;;;;;4959889;28;20033;-83
2023/12/29 01:08:15;;;;;;;10.68;2.83;;;8.40;99.90;;;;;;4955683;28;20026;-84
2023/12/29 01:10:44;;;;;;;7.05;1.65;;;8.40;99.90;;;;;;4959000;28;20022;-82
2023/12/29 01:13:09;;;;;;;7.47;1.98;;;8.30;99.90;;;;;;4955948;28;21083;-85
2023/12/29 01:15:35;;;;;;;4.35;2.22;;;8.40;99.90;;;;;;4973206;28;20756;-84
2023/12/29 01:18:01;;;;;;;5.97;1.92;;;8.30;99.90;;;;;;4970604;28;20019;-84
2023/12/29 01:20:26;;;;;;;7.70;1.85;;;8.30;99.90;;;;;;4952312;28;20033;-83
2023/12/29 01:22:52;;;;;;;3.30;1.60;;;8.40;99.90;;;;;;4970090;22;20073;-84
2023/12/29 01:25:17;;;;;;;2.55;1.45;;;8.30;99.90;;;;;;4951377;28;21124;-84
2023/12/29 01:27:43;;;;;;;9.18;2.58;;;8.30;99.90;;;;;;4965184;28;20509;-84
2023/12/29 01:30:09;;;;;;;6.60;2.47;;;8.30;99.90;;;;;;4976298;28;20052;-85
2023/12/29 01:32:35;;;;;;;3.97;1.90;;;8.30;99.90;;;;;;4955931;28;20022;-85
2023/12/29 01:35:01;;;;;;;6.30;2.30;;;8.30;99.90;;;;;;4952323;28;20041;-83
2023/12/29 01:37:27;;;;;;;7.63;2.20;;;8.30;99.90;;;;;;4961616;28;20525;-83
2023/12/29 01:39:52;;;;;;;7.35;2.10;;;8.30;99.90;;;;;;4966413;28;20101;-84
2023/12/29 01:42:27;;;;;;;8.02;2.10;;;8.30;99.90;;;;;;4922353;28;20049;-84
2023/12/29 01:44:54;;;;;;;4.32;1.98;;;8.30;99.90;;;;;;4968224;28;20485;-84
2023/12/29 01:47:21;;;;;;;4.18;2.22;;;8.30;99.90;;;;;;4918469;28;20058;-84
2023/12/29 01:49:50;;;;;;;6.65;1.98;;;8.30;99.90;;;;;;4939345;28;20022;-83
2023/12/29 01:52:17;;;;;;;3.65;1.80;;;8.30;99.90;;;;;;4943554;28;21156;-85
2023/12/29 01:54:45;;;;;;;4.63;2.47;;;8.30;99.90;;;;;;4936494;28;20061;-85
2023/12/29 01:57:11;;;;;;;4.47;1.88;;;8.20;99.90;;;;;;4925021;28;20034;-83
2023/12/29 01:59:38;;;;;;;7.35;2.22;;;8.30;99.90;;;;;;4932255;28;20030;-84
2023/12/29 02:02:04;;;;;;;5.10;1.95;;;8.20;99.90;;;;;;4932024;28;20056;-85
2023/12/29 02:04:31;;;;;;;4.93;1.98;;;8.30;99.90;;;;;;4940318;28;20026;-83
2023/12/29 02:06:57;;;;;;;4.75;1.98;;;8.30;99.90;;;;;;4938613;28;20018;-84
2023/12/29 02:09:23;;;;;;;5.85;1.73;;;8.30;99.90;;;;;;4950087;28;20022;-84
2023/12/29 02:11:48;;;;;;;4.35;1.65;;;8.30;99.90;;;;;;4955869;28;20509;-84
2023/12/29 02:14:18;;;;;;;4.40;1.73;;;8.30;99.90;;;;;;4912882;28;20113;-85
2023/12/29 02:17:16;;;;;;;4.43;1.88;;;8.30;99.90;;;;;;4916759;28;20030;-84
2023/12/29 02:19:44;;;;;;;4.82;1.70;;;8.30;99.90;;;;;;4941305;28;20022;-83
2023/12/29 02:22:11;;;;;;;8.88;2.22;;;8.40;99.90;;;;;;4927485;28;20413;-85
2023/12/29 02:24:37;;;;;;;7.03;2.15;;;8.40;99.90;;;;;;4978860;28;20564;-85
2023/12/29 02:27:07;;;;;;;5.80;2.25;;;8.40;99.90;;;;;;4968970;28;20018;-84
2023/12/29 02:29:33;;;;;;;5.45;2.08;;;8.40;99.90;;;;;;4919118;28;20031;-85
2023/12/29 02:32:00;;;;;;;4.50;2.10;;;8.50;99.90;;;;;;4943341;28;20022;-85
2023/12/29 02:34:29;;;;;;;8.20;2.30;;;8.50;99.90;;;;;;4948138;28;20022;-85
2023/12/29 02:36:56;;;;;;;3.55;2.05;;;8.50;99.90;;;;;;4964490;28;20117;-85
2023/12/29 02:39:21;;;;;;;5.70;2.25;;;8.50;99.90;;;;;;4922401;28;20201;-85
2023/12/29 02:41:47;;;;;;;7.28;1.52;;;8.50;99.90;;;;;;4997715;28;20161;-86
2023/12/29 02:44:13;;;;;;;6.10;2.28;;;8.50;99.90;;;;;;4967985;28;20057;-86
2023/12/29 02:46:39;;;;;;;6.63;1.95;;;8.60;99.90;;;;;;4963393;28;20031;-86
2023/12/29 02:49:05;;;;;;;10.20;2.15;;;8.60;99.90;;;;;;4945281;28;20026;-86
2023/12/29 02:51:30;;;;;;;5.78;1.63;;;8.60;99.90;;;;;;4959117;28;21493;-87
2023/12/29 02:53:56;;;;;;;4.72;1.55;;;8.60;99.90;;;;;;4994250;28;20056;-86
2023/12/29 02:56:22;;;;;;;6.40;2.00;;;8.60;99.90;;;;;;4959296;28;20418;-86
2023/12/29 02:58:48;;;;;;;4.07;1.40;;;8.60;99.90;;;;;;4954639;28;20038;-85
2023/12/29 03:01:13;;;;;;;4.93;1.52;;;8.60;99.90;;;;;;4965096;28;20564;-85
2023/12/29 03:03:39;;;;;;;4.25;2.05;;;8.60;99.90;;;;;;4982763;28;20030;-85
2023/12/29 03:06:06;;;;;;;5.22;1.30;;;8.50;99.90;;;;;;4975857;28;20448;-85
2023/12/29 03:08:32;;;;;;;2.25;1.08;;;8.40;99.90;;;;;;4987785;28;20073;-85
2023/12/29 03:10:58;;;;;;;4.47;1.48;;;8.40;99.90;;;;;;4982545;28;20490;-85
2023/12/29 03:13:23;;;;;;;3.05;1.75;;;8.40;99.90;;;;;;4983422;28;20062;-85
2023/12/29 03:15:49;;;;;;;5.57;1.27;;;8.30;99.90;;;;;;4960193;28;20022;-86
2023/12/29 03:18:14;;;;;;;6.53;1.70;;;8.30;99.90;;;;;;4964599;28;20072;-86
2023/12/29 03:20:40;;;;;;;3.40;1.42;;;8.30;99.90;;;;;;4960798;28;20049;-85
2023/12/29 03:23:06;;;;;;;4.28;1.27;;;8.20;99.90;;;;;;4968971;28;20189;-85
2023/12/29 03:25:31;;;;;;;6.57;1.52;;;8.20;99.90;;;;;;4985929;28;21249;-86
2023/12/29 03:27:57;;;;;;;2.28;1.20;;;8.20;99.90;;;;;;4954727;28;21876;-86
2023/12/29 03:30:22;;;;;;;3.08;1.30;;;8.10;99.90;;;;;;4949565;28;20574;-86
2023/12/29 03:32:48;;;;;;;2.47;1.17;;;8.10;99.90;;;;;;4937469;28;20026;-86
2023/12/29 03:35:14;;;;;;;3.17;1.13;;;8.10;99.90;;;;;;4950657;28;20036;-86
2023/12/29 03:37:39;;;;;;;2.00;1.00;;;8.10;99.90;;;;;;4989327;28;20030;-84
2023/12/29 03:40:06;;;;;;;6.70;1.52;;;8.10;99.90;;;;;;4967041;28;20437;-86
2023/12/29 03:42:31;;;;;;;3.65;1.00;;;8.20;99.90;;;;;;4935075;28;20057;-85
2023/12/29 03:44:58;;;;;;;2.22;1.08;;;8.20;99.90;;;;;;4927439;28;20034;-86
2023/12/29 03:47:23;;;;;;;3.05;1.60;;;8.20;99.90;;;;;;4948435;28;20045;-85
2023/12/29 03:49:49;;;;;;;3.25;1.13;;;8.20;99.90;;;;;;4962773;28;20474;-86
2023/12/29 03:52:14;;;;;;;3.90;1.27;;;8.20;99.90;;;;;;4944076;28;20593;-83
2023/12/29 03:54:40;;;;;;;4.93;1.45;;;8.20;99.90;;;;;;4936976;28;20178;-85
2023/12/29 03:57:05;;;;;;;2.42;1.05;;;8.20;99.90;;;;;;4909894;28;20029;-86
2023/12/29 03:59:31;;;;;;;2.20;1.17;;;8.20;99.90;;;;;;4933275;28;20034;-85
2023/12/29 04:01:57;;;;;;;3.75;1.65;;;8.20;99.90;;;;;;4972110;28;20044;-85
2023/12/29 04:04:23;;;;;;;4.18;1.20;;;8.20;99.90;;;;;;4932465;28;20030;-87
2023/12/29 04:06:49;;;;;;;4.68;1.17;;;8.20;99.90;;;;;;4966022;28;20029;-86
2023/12/29 04:09:14;;;;;;;4.00;1.40;;;8.20;99.90;;;;;;4918447;28;20379;-86
2023/12/29 04:11:40;;;;;;;6.75;1.80;;;8.30;99.90;;;;;;4922546;28;20030;-85
2023/12/29 04:14:05;;;;;;;9.30;1.48;;;8.30;99.90;;;;;;4905311;28;20129;-84
2023/12/29 04:16:31;;;;;;;5.25;1.42;;;8.30;99.90;;;;;;4968880;28;21326;-85
2023/12/29 04:18:56;;;;;;;2.05;0.77;;;8.40;99.90;;;;;;4926789;28;20029;-86
2023/12/29 04:21:22;;;;;;;4.25;0.98;;;8.30;99.90;;;;;;4905549;28;20398;-85
2023/12/29 04:23:48;;;;;;;1.75;1.05;;;8.30;99.90;;;;;;4911782;28;20116;-86
2023/12/29 04:26:13;;;;;;;4.10;0.82;;;8.30;99.90;;;;;;4924331;28;20035;-85
2023/12/29 04:28:39;;;;;;;2.65;0.60;;;8.20;99.90;;;;;;4955771;28;20082;-84
2023/12/29 04:31:04;;;;;;;4.22;0.73;;;8.10;99.90;;;;;;4939071;28;21072;-86
2023/12/29 04:33:30;;;;;;;5.47;0.85;;;7.90;99.90;;;;;;4892705;28;20030;-86
2023/12/29 04:35:55;;;;;;;2.05;0.77;;;7.80;99.90;;;;;;4888556;28;20483;-85
2023/12/29 04:38:21;;;;;;;0.40;0.22;;;7.70;99.90;;;;;;4912810;28;21516;-86
2023/12/29 04:40:47;;;;;;;0.95;0.60;;;7.50;99.90;;;;;;4936023;28;20160;-85
2023/12/29 04:43:13;;;;;;;2.50;0.57;;;7.50;99.90;;;;;;4928914;28;20065;-84
2023/12/29 04:45:38;;;;;;;2.55;0.60;;;7.40;99.90;;;;;;4903653;28;20495;-86
2023/12/29 04:48:04;;;;;;;2.35;0.65;;;7.30;99.90;;;;;;4874149;28;20084;-86
2023/12/29 04:50:30;;;;;;;1.45;0.60;;;7.30;99.90;;;;;;4914213;28;20022;-86
2023/12/29 04:52:56;;;;;;;2.20;0.50;;;7.20;99.90;;;;;;4930929;28;20433;-84
2023/12/29 04:55:21;;;;;;;1.38;0.43;;;7.10;99.90;;;;;;4909408;28;20114;-86
2023/12/29 04:57:47;;;;;;;1.67;1.00;;;7.10;99.90;;;;;;4930907;28;20033;-86
2023/12/29 05:00:13;;;;;;;2.90;0.82;;;7.00;99.90;;;;;;4892102;28;20033;-85
2023/12/29 05:02:39;;;;;;;2.85;0.57;;;7.00;99.90;;;;;;4911172;28;20072;-86
2023/12/29 05:05:05;;;;;;;1.65;0.65;;;6.90;99.90;;;;;;4958417;28;20050;-85
2023/12/29 05:07:30;;;;;;;0.95;0.50;;;6.90;99.90;;;;;;4956323;28;20371;-86
2023/12/29 05:10:02;;;;;;;1.42;0.40;;;6.90;99.90;;;;;;4920076;28;20077;-86
2023/12/29 05:12:28;;;;;;;1.40;0.40;;;6.80;99.90;;;;;;4896067;28;20030;-86
2023/12/29 05:14:56;;;;;;;3.13;0.90;;;6.80;99.90;;;;;;4920585;28;20038;-86
2023/12/29 05:17:22;;;;;;;1.75;0.70;;;6.80;99.90;;;;;;4887182;28;21454;-85
2023/12/29 05:19:47;;;;;;;3.78;0.68;;;6.80;99.90;;;;;;4940921;28;20025;-86
2023/12/29 05:22:17;;;;;;;1.85;0.50;;;6.80;99.90;;;;;;4924785;28;20026;-85
2023/12/29 05:24:43;;;;;;;2.83;0.77;;;6.80;99.90;;;;;;4914572;28;20077;-86
2023/12/29 05:27:08;;;;;;;2.20;0.80;;;6.80;99.90;;;;;;4871715;28;20022;-86
2023/12/29 05:29:34;;;;;;;5.38;0.85;;;6.80;99.90;;;;;;4933341;28;20034;-86
2023/12/29 05:32:11;;;;;;;2.63;0.70;;;6.70;99.90;;;;;;4914548;28;20052;-85
2023/12/29 05:34:37;;;;;;;4.60;0.75;;;6.70;99.90;;;;;;4937541;28;21518;-86
2023/12/29 05:37:03;;;;;;;3.50;1.02;;;6.70;99.90;;;;;;4950436;28;20540;-86
2023/12/29 05:39:29;;;;;;;4.13;0.80;;;6.70;99.90;;;;;;4917260;28;20616;-87
2023/12/29 05:41:54;;;;;;;4.35;0.88;;;6.70;99.90;;;;;;4899234;28;20033;-86
2023/12/29 05:44:20;;;;;;;2.50;1.10;;;6.70;99.90;;;;;;4889402;28;21351;-87
2023/12/29 05:46:47;;;;;;;5.72;1.00;;;6.70;99.90;;;;;;4933108;28;20030;-86
2023/12/29 05:49:13;;;;;;;7.38;0.85;;;6.70;99.90;;;;;;4909783;28;20512;-85
2023/12/29 05:51:38;;;;;;;4.70;0.85;;;6.70;99.90;;;;;;4921633;28;20030;-86
2023/12/29 05:54:04;;;;;;;3.38;1.00;;;6.70;99.90;;;;;;4908628;28;20108;-86
2023/12/29 05:56:29;;;;;;;8.30;1.30;;;6.70;99.90;;;;;;4930492;28;20033;-86
2023/12/29 05:58:55;;;;;;;3.38;0.90;;;6.70;99.90;;;;;;4945256;28;20060;-86
2023/12/29 06:01:23;;;;;;;3.75;1.13;;;6.80;99.90;;;;;;4910381;28;20025;-87
2023/12/29 06:03:49;;;;;;;8.20;1.10;;;6.80;99.90;;;;;;4967506;23;20050;-61
2023/12/29 06:06:14;;;;;;;4.05;1.30;;;6.90;99.90;;;;;;4917115;28;20029;-60
2023/12/29 06:08:40;;;;;;;3.63;1.05;;;6.90;99.90;;;;;;4936853;28;20030;-62
2023/12/29 06:11:06;;;;;;;7.50;1.40;;;6.90;99.90;;;;;;4923437;28;20050;-62
2023/12/29 06:13:32;;;;;;;2.22;0.90;;;6.90;99.90;;;;;;4928998;28;21305;-61
2023/12/29 06:15:57;;;;;;;3.97;1.33;;;6.90;99.90;;;;;;4932726;28;20529;-61
2023/12/29 06:18:23;;;;;;;9.98;1.92;;;7.00;99.90;;;;;;4885214;28;20030;-59
2023/12/29 06:20:49;;;;;;;5.32;1.45;;;7.00;99.90;;;;;;4903794;28;20038;-62
2023/12/29 06:23:16;;;;;;;5.55;1.27;;;6.90;99.90;;;;;;4926192;28;20019;-62
2023/12/29 06:25:42;;;;;;;5.97;1.00;;;6.90;99.90;;;;;;4927043;28;20029;-60
2023/12/29 06:28:08;;;;;;;3.92;0.98;;;6.90;99.90;;;;;;4936165;28;20613;-61
2023/12/29 06:30:34;;;;;;;3.67;1.17;;;6.80;99.90;;;;;;4914982;28;20057;-60
2023/12/29 06:32:59;;;;;;;6.28;1.00;;;6.90;99.90;;;;;;4888601;28;20084;-62
2023/12/29 06:35:25;;;;;;;5.45;0.80;;;6.80;99.90;;;;;;4934898;28;20129;-62
2023/12/29 06:37:50;;;;;;;6.55;1.60;;;6.80;99.90;;;;;;4922112;28;20452;-62
2023/12/29 06:40:17;;;;;;;3.65;1.05;;;6.80;99.90;;;;;;4895056;28;20040;-63
2023/12/29 06:42:42;;;;;;;2.47;1.10;;;6.90;99.90;;;;;;4942543;28;20029;-62
2023/12/29 06:45:08;;;;;;;5.38;1.67;;;6.90;99.90;;;;;;4884496;28;20042;-61
2023/12/29 06:47:34;;;;;;;2.63;0.85;;;6.90;99.90;;;;;;4932758;28;20038;-62
2023/12/29 06:49:59;;;;;;;3.28;1.20;;;6.90;99.90;;;;;;4924837;28;20065;-62
2023/12/29 06:52:26;;;;;;;6.10;1.77;;;6.90;99.90;;;;;;4907005;28;20030;-61
2023/12/29 06:54:52;;;;;;;3.38;1.63;;;6.90;99.90;;;;;;4923256;28;20029;-58
2023/12/29 06:57:17;;;;;;;5.57;1.40;;;6.90;99.90;;;;;;4877317;28;20030;-61
2023/12/29 06:59:43;;;;;;;6.13;1.52;;;7.00;99.90;;;;;;4909089;28;20057;-62
2023/12/29 07:02:08;;;;;;;3.05;1.35;;;7.00;99.90;;;;;;4895888;28;20038;-58
2023/12/29 07:04:34;;;;;;;11.48;1.50;;;7.00;99.90;;;;;;4916096;28;20956;-60
2023/12/29 07:07:03;;;;;;;2.88;1.98;;;7.10;99.90;;;;;;4917056;28;20034;-58
2023/12/29 07:09:28;;;;;;;9.15;1.73;;;7.10;99.90;;;;;;4866046;28;20026;-60
2023/12/29 07:11:54;;;;;;;9.00;1.83;;;7.10;99.90;;;;;;4890701;28;20173;-59
2023/12/29 07:14:19;;;;;;;6.20;1.52;;;7.20;99.90;;;;;;4940491;28;20045;-60
2023/12/29 07:16:45;;;;;;;6.72;1.80;;;7.20;99.90;;;;;;4944702;28;20026;-61
2023/12/29 07:19:10;;;;;;;10.77;2.45;;;7.10;99.90;;;;;;4913270;28;20139;-61
2023/12/29 07:21:36;;;;;;;9.07;2.00;;;7.20;99.90;;;;;;4875467;28;20387;-60
2023/12/29 07:24:01;;;;;;;6.85;1.52;;;7.20;99.90;;;;;;4869760;28;21638;-60
2023/12/29 07:26:27;;;;;;;7.25;1.80;;;7.30;99.90;;;;;;4918990;28;20041;-60
2023/12/29 07:28:54;;;;;;;10.07;2.47;;;7.30;99.90;;;;;;4920350;28;20263;-61
2023/12/29 07:31:21;;;;;;;6.97;2.55;;;7.40;99.90;;;;;;4889735;28;20031;-62
2023/12/29 07:33:46;;;;;;;4.88;1.60;;;7.40;99.90;;;;;;4930963;28;20052;-61
2023/12/29 07:36:12;;;;;;;13.43;2.35;;;7.40;99.90;;;;;;4863809;28;20026;-62
2023/12/29 07:38:38;;;;;;;14.88;2.42;;;7.40;99.90;;;;;;4921911;28;20081;-59
2023/12/29 07:41:03;;;;;;;9.23;2.22;;;7.50;99.90;;;;;;4877906;28;20038;-62
2023/12/29 07:43:29;;;;;;;7.90;1.98;;;7.50;99.90;;;;;;4895316;28;20662;-60
2023/12/29 07:45:55;;;;;;;6.65;1.88;;;7.50;99.90;;;;;;4929297;28;20031;-62
2023/12/29 07:48:20;;;;;;;5.82;2.13;;;7.50;99.90;;;;;;4880446;28;20602;-62
2023/12/29 07:50:46;;;;;;;7.78;2.40;;;7.50;99.90;;;;;;4921517;28;20034;-60
2023/12/29 07:53:11;;;;;;;9.70;1.90;;;7.60;99.90;;;;;;4924394;28;20079;-62
2023/12/29 07:55:38;;;;;;;7.97;2.15;;;7.60;99.90;;;;;;4902160;28;22493;-61
2023/12/29 07:58:04;;;;;;;8.98;2.88;;;7.60;99.90;;;;;;4952801;28;20026;-61
2023/12/29 08:00:29;;;;;;;7.57;2.45;;;7.70;99.90;;;;;;4931164;28;20050;-61
2023/12/29 08:02:55;;;;;;;9.93;2.25;;;7.70;99.90;;;;;;4860088;28;20044;-61
2023/12/29 08:05:20;;;;;;;9.93;1.92;;;7.80;99.90;;;;;;4930670;28;20594;-61
2023/12/29 08:07:46;;;;;;;10.82;1.98;;;7.90;99.90;;;;;;4938489;28;20034;-60
2023/12/29 08:10:11;;;;;;;12.52;2.45;;;7.90;99.90;;;;;;4957250;28;20478;-63
2023/12/29 08:12:37;;;;;;;10.82;2.70;;;7.90;99.90;;;;;;4919940;28;20029;-60
2023/12/29 08:15:03;;;;;;;9.98;2.00;;;8.00;99.90;;;;;;4875729;28;20048;-60
2023/12/29 08:17:29;;;;;;;12.48;2.17;;;8.00;99.90;;;;;;4913128;28;20434;-60
2023/12/29 08:19:54;;;;;;;6.88;1.98;;;8.00;99.90;;;;;;4908176;28;20461;-61
2023/12/29 08:22:20;;;;;;;8.23;2.70;;;7.90;99.90;;;;;;4903867;28;20567;-63
2023/12/29 08:24:46;;;;;;;12.60;2.97;;;7.90;99.90;;;;;;4945828;28;20112;-61
2023/12/29 08:27:12;;;;;;;8.68;1.92;;;8.00;99.90;;;;;;4879878;28;20429;-62
2023/12/29 08:29:38;;;;;;;9.38;2.38;;;8.00;99.90;;;;;;4895054;28;20014;-60
2023/12/29 08:32:04;;;;;;;7.78;2.22;;;8.00;99.90;;;;;;4872760;28;20049;-62
2023/12/29 08:34:30;;;;;;;11.45;2.72;;;8.00;99.90;;;;;;4917771;28;20036;-59
2023/12/29 08:36:56;;;;;;;11.13;2.42;;;8.00;99.90;;;;;;4912251;28;20037;-60
2023/12/29 08:39:21;;;;;;;7.40;1.77;;;8.10;99.90;;;;;;4838977;28;20171;-60
2023/12/29 08:41:49;;;;;;;11.30;2.70;;;8.10;99.90;;;;;;4856705;28;20027;-62
2023/12/29 08:44:15;;;;;;;10.77;3.10;;;8.20;99.90;;;;;;4894850;28;20029;-58
2023/12/29 08:46:40;;;;;;;14.88;2.70;;;8.20;99.90;;;;;;4899643;28;21322;-61
2023/12/29 08:49:07;;;;;;;7.05;2.25;;;8.20;99.90;;;;;;4877024;28;20027;-60
2023/12/29 08:51:32;;;;;;;11.88;2.20;;;8.20;99.90;;;;;;4836992;28;20077;-58
2023/12/29 08:53:58;;;;;;;10.48;2.53;;;8.20;99.90;;;;;;4870971;28;20037;-59
2023/12/29 08:56:23;;;;;;;10.73;1.95;;;8.30;99.90;;;;;;4892917;28;20038;-60
2023/12/29 08:58:49;;;;;;;5.75;1.77;;;8.30;99.90;;;;;;4897273;28;20113;-56
2023/12/29 09:01:15;;;;;;;11.55;1.80;;;8.30;99.90;;;;;;4896068;28;20033;-61
2023/12/29 09:03:40;;;;;;;7.65;1.98;;;8.30;99.90;;;;;;4869203;28;20037;-62
2023/12/29 09:06:08;;;;;;;7.85;1.75;;;8.30;99.90;;;;;;4871030;28;20474;-61
2023/12/29 09:08:34;;;;;;;5.90;1.17;;;8.20;99.90;;;;;;4888112;28;20050;-60
2023/12/29 09:11:00;;;;;;;4.78;1.27;;;8.10;99.90;;;;;;4883619;28;20133;-64
2023/12/29 09:13:26;;;;;;;4.90;1.30;;;8.00;99.90;;;;;;4893140;28;20053;-58
2023/12/29 09:15:53;;;;;;;4.97;1.17;;;7.90;99.90;;;;;;4898905;28;20014;-61
2023/12/29 09:18:18;;;;;;;3.05;1.00;;;7.70;99.90;;;;;;4858191;28;20544;-62
2023/12/29 09:20:44;;;;;;;1.58;0.63;;;7.50;99.90;;;;;;4868113;28;20018;-60
2023/12/29 09:23:10;;;;;;;3.05;0.73;;;7.40;99.90;;;;;;4861152;28;20045;-62
2023/12/29 09:25:35;;;;;;;3.30;0.70;;;7.30;99.90;;;;;;4876409;28;21525;-61
2023/12/29 09:28:01;;;;;;;3.85;0.70;;;7.20;99.90;;;;;;4925217;28;20462;-61
2023/12/29 09:30:26;;;;;;;2.45;0.73;;;7.10;99.90;;;;;;4848076;28;20054;-61
2023/12/29 09:32:52;;;;;;;3.95;1.17;;;7.00;99.90;;;;;;4873647;28;20053;-62
2023/12/29 09:35:17;;;;;;;1.65;0.70;;;7.00;99.90;;;;;;4880704;28;21648;-61
2023/12/29 09:37:43;;;;;;;4.35;0.88;;;6.90;99.90;;;;;;4931817;28;22292;-62
2023/12/29 09:40:10;;;;;;;4.70;0.95;;;6.90;99.90;;;;;;4913155;28;20034;-61
2023/12/29 09:42:38;;;;;;;2.55;0.70;;;6.90;99.90;;;;;;4861624;28;20465;-61
2023/12/29 09:45:07;;;;;;;4.20;0.55;;;6.90;99.90;;;;;;4861128;28;20073;-61
2023/12/29 09:47:36;;;;;;;7.05;0.88;;;6.90;99.90;;;;;;4872888;28;20061;-62
2023/12/29 09:50:03;;;;;;;3.60;0.63;;;6.90;99.90;;;;;;4898635;28;20499;-64
2023/12/29 09:52:29;;;;;;;2.22;0.73;;;6.80;99.90;;;;;;4893482;28;20138;-62
2023/12/29 09:54:55;;;;;;;1.98;0.73;;;6.80;99.90;;;;;;4852785;28;20486;-62
2023/12/29 09:57:20;;;;;;;2.38;0.60;;;6.80;99.90;;;;;;4829353;28;20026;-62
2023/12/29 09:59:51;;;;;;;3.53;1.20;;;6.80;99.90;;;;;;4841897;28;20440;-63
2023/12/29 10:02:17;;;;;;;5.63;1.60;;;6.90;99.90;;;;;;4850880;28;21649;-62
2023/12/29 10:04:42;;;;;;;4.53;1.48;;;6.90;99.90;;;;;;4866389;28;20045;-62
2023/12/29 10:07:22;;;;;;;5.47;1.10;;;7.00;99.90;;;;;;4945113;28;20030;-62
2023/12/29 10:09:52;;;;;;;3.15;1.05;;;7.00;99.90;;;;;;4895904;28;20398;-63
2023/12/29 10:12:19;;;;;;;8.95;2.70;;;7.00;99.90;;;;;;4832850;28;20057;-62
2023/12/29 10:14:53;;;;;;;5.90;2.35;;;7.00;99.90;;;;;;4866915;28;20038;-62
2023/12/29 10:17:29;;;;;;;11.80;2.53;;;7.00;99.90;;;;;;4865565;28;22267;-62
2023/12/29 10:20:10;;;;;;;8.18;1.95;;;7.10;99.90;;;;;;4931061;28;20524;-62
2023/12/29 10:22:51;;;;;;;6.38;2.00;;;7.10;99.90;;;;;;4916681;28;20696;-62
2023/12/29 10:25:17;;;;;;;7.00;2.67;;;7.20;99.90;;;;;;4883723;28;20038;-63
2023/12/29 10:27:43;;;;;;;12.82;4.30;;;7.30;99.90;;;;;;4931554;28;20018;-63
2023/12/29 10:30:11;;;;;;;8.38;2.30;;;7.30;99.90;;;;;;4905347;28;21743;-62
2023/12/29 10:32:36;;;;;;;10.52;3.47;;;7.30;99.90;;;;;;4926390;28;20861;-62
2023/12/29 10:35:12;;;;;;;14.55;4.32;;;7.40;99.90;;;;;;4915050;28;20040;-63
2023/12/29 10:37:38;;;;;;;11.60;3.55;;;7.50;99.90;;;;;;4913193;28;21866;-63
2023/12/29 10:40:05;;;;;;;12.30;3.75;;;7.60;99.90;;;;;;4984408;28;20040;-62
2023/12/29 10:42:30;;;;;;;14.43;5.13;;;7.70;99.90;;;;;;4898787;28;20038;-62
2023/12/29 10:45:09;;;;;;;8.20;3.70;;;7.70;99.90;;;;;;4916494;28;20373;-62
2023/12/29 10:47:35;;;;;;;7.35;3.00;;;7.80;99.90;;;;;;4997895;28;20025;-62
2023/12/29 10:50:05;;;;;;;12.48;2.30;;;7.80;99.90;;;;;;4969217;28;20418;-61
2023/12/29 10:52:32;;;;;;;12.05;2.13;;;7.90;99.90;;;;;;4957407;28;20413;-62
2023/12/29 10:55:09;;;;;;;10.65;2.40;;;7.90;99.90;;;;;;4950158;28;20030;-60
2023/12/29 10:57:35;;;;;;;6.38;1.73;;;8.00;99.90;;;;;;4974763;28;20108;-62
2023/12/29 11:00:01;;;;;;;9.20;2.20;;;8.00;99.90;;;;;;4961798;28;20034;-62
2023/12/29 11:02:28;;;;;;;9.48;1.83;;;8.00;99.90;;;;;;4980793;28;20032;-62
2023/12/29 11:05:05;;;;;;;8.02;2.58;;;8.10;99.90;;;;;;4957481;28;20513;-59
2023/12/29 11:07:38;;;;;;;6.97;1.95;;;8.00;99.90;;;;;;4963342;28;20026;-61
2023/12/29 11:10:05;;;;;;;7.93;2.53;;;8.00;99.90;;;;;;4969927;28;20471;-59
2023/12/29 11:12:33;;;;;;;6.00;1.77;;;8.00;99.90;;;;;;4963069;28;20015;-60
2023/12/29 11:15:01;;;;;;;8.40;1.92;;;8.00;99.90;;;;;;4964514;28;20113;-62
2023/12/29 11:17:27;;;;;;;8.05;1.95;;;8.00;99.90;;;;;;4975845;28;20441;-60
2023/12/29 11:19:52;;;;;;;6.63;2.13;;;8.10;99.90;;;;;;4945538;28;20039;-62
2023/12/29 11:22:19;;;;;;;6.38;1.65;;;8.10;99.90;;;;;;4943017;28;20026;-62
2023/12/29 11:24:48;;;;;;;5.93;1.67;;;8.10;99.90;;;;;;4930209;28;20509;-61
2023/12/29 11:27:15;;;;;;;8.75;1.85;;;8.10;99.90;;;;;;4963233;28;20494;-61
2023/12/29 11:29:42;;;;;;;9.63;2.03;;;8.10;99.90;;;;;;4971794;28;20084;-61
2023/12/29 11:32:15;;;;;;;4.82;1.75;;;8.10;99.90;;;;;;4962785;28;20513;-62
2023/12/29 11:34:46;;;;;;;9.80;2.45;;;8.10;99.90;;;;;;4965941;28;20033;-61
2023/12/29 11:37:29;;;;;;;11.02;1.95;;;8.10;99.90;;;;;;4941103;28;20026;-62
2023/12/29 11:40:41;;;;;;;10.27;2.25;;;8.10;99.90;;;;;;4945371;28;20082;-61
2023/12/29 11:43:14;;;;;;;8.20;1.98;;;8.10;99.90;;;;;;4903925;28;20027;-62
2023/12/29 11:45:39;;;;;;;17.33;2.33;;;8.10;99.90;;;;;;4942724;28;20059;-62
2023/12/29 11:48:05;;;;;;;6.57;1.85;;;8.20;99.90;;;;;;4928081;28;20151;-62
2023/12/29 11:50:42;;;;;;;8.52;2.75;;;8.20;99.90;;;;;;4980820;28;20026;-62
2023/12/29 11:53:11;;;;;;;6.38;2.70;;;8.30;99.90;;;;;;4935704;28;20038;-63
2023/12/29 11:55:38;;;;;;;9.20;2.42;;;8.30;99.90;;;;;;4932176;28;20518;-62
2023/12/29 11:58:23;;;;;;;13.10;2.50;;;8.30;99.90;;;;;;4947466;28;20030;-62
2023/12/29 12:00:49;;;;;;;5.80;2.00;;;8.40;99.90;;;;;;4941531;28;20034;-61
2023/12/29 12:03:25;;;;;;;9.02;1.80;;;8.40;99.90;;;;;;4949273;28;20040;-62
2023/12/29 12:05:52;;;;;;;8.52;2.28;;;8.30;99.90;;;;;;4952534;28;20033;-62
2023/12/29 12:08:35;;;;;;;7.55;2.30;;;8.40;99.90;;;;;;4938131;28;20075;-61
2023/12/29 12:11:39;;;;;;;6.75;1.83;;;8.40;99.90;;;;;;4942636;28;20383;-62
2023/12/29 12:14:05;;;;;;;3.40;1.63;;;8.40;99.90;;;;;;4907852;28;20447;-61
2023/12/29 12:16:42;;;;;;;5.90;1.65;;;8.40;99.90;;;;;;4888112;28;20104;-63
2023/12/29 12:19:09;;;;;;;5.97;1.92;;;8.50;99.90;;;;;;4884117;28;20883;-61
2023/12/29 12:21:36;;;;;;;4.10;1.38;;;8.50;99.90;;;;;;4952042;28;20033;-62
2023/12/29 12:24:04;;;;;;;7.68;2.35;;;8.60;99.90;;;;;;4931960;28;20026;-62
2023/12/29 12:26:31;;;;;;;5.25;1.70;;;8.60;99.90;;;;;;4950474;28;20031;-62
2023/12/29 12:28:57;;;;;;;9.23;1.70;;;8.70;99.90;;;;;;4966865;28;20442;-62
2023/12/29 12:31:23;;;;;;;4.15;2.20;;;8.60;99.90;;;;;;4930906;28;20022;-61
2023/12/29 12:33:55;;;;;;;3.53;1.08;;;8.60;99.90;;;;;;4928555;28;20075;-61
2023/12/29 12:36:21;;;;;;;7.68;1.95;;;8.60;99.90;;;;;;4951062;28;20041;-61
2023/12/29 12:38:57;;;;;;;8.02;2.08;;;8.70;99.90;;;;;;4951437;28;20026;-62
2023/12/29 12:41:24;;;;;;;9.25;1.98;;;8.70;99.90;;;;;;4948938;28;20030;-61
2023/12/29 12:44:13;;;;;;;5.65;1.73;;;8.70;99.90;;;;;;4934473;28;20121;-62
2023/12/29 12:46:52;;;;;;;8.68;2.15;;;8.80;99.90;;;;;;4916763;28;20061;-62
2023/12/29 12:49:18;;;;;;;4.55;1.23;;;8.80;99.90;;;;;;4878807;28;20028;-61
2023/12/29 12:51:43;;;;;;;6.28;1.60;;;8.80;99.90;;;;;;4943856;28;20686;-62
2023/12/29 12:54:10;;;;;;;6.07;1.50;;;8.90;99.90;;;;;;4931771;28;22066;-62
2023/12/29 12:56:36;;;;;;;10.68;2.15;;;8.90;99.90;;;;;;4943596;28;21842;-63